Time;durP1;ratioP1;P1;durP2;ratioP2;P2;SDS_P1;SDS_P2;PMS_P1;PMS_P2;Temp;Humidity;BMP_temperature;BMP_pressure;BME280_temperature;BME280_humidity;BME280_pressure;Samples;Min_cycle;Max_cycle;Signal;HPM_P1;HPM_P2
2023/02/20 00:01:18;;;;;;;3.40;2.30;;;;;;;9.61;69.71;100190.65;107633;1290;21998;-58
2023/02/20 00:03:45;;;;;;;3.40;2.10;;;;;;;9.58;69.74;100194.89;107640;1291;21997;-71
2023/02/20 00:06:11;;;;;;;4.70;2.40;;;;;;;9.58;69.45;100190.51;107635;1291;21991;-59
2023/02/20 00:08:37;;;;;;;4.50;2.00;;;;;;;9.59;69.36;100188.57;107672;1291;21993;-58
2023/02/20 00:11:07;;;;;;;4.20;1.70;;;;;;;9.60;69.19;100183.65;107729;1291;21990;-58
2023/02/20 00:13:36;;;;;;;3.20;1.70;;;;;;;9.58;69.28;100184.02;107832;1291;22003;-71
2023/02/20 00:16:03;;;;;;;4.00;1.90;;;;;;;9.58;69.23;100185.78;107774;1291;22006;-70
2023/02/20 00:18:29;;;;;;;3.60;2.20;;;;;;;9.55;69.57;100191.60;107735;1291;22225;-71
2023/02/20 00:20:56;;;;;;;4.70;2.00;;;;;;;9.51;69.50;100192.51;107652;1291;21995;-59
2023/02/20 00:23:22;;;;;;;3.50;2.00;;;;;;;9.50;69.08;100186.55;107666;1291;21990;-70
2023/02/20 00:25:47;;;;;;;6.50;2.60;;;;;;;9.48;68.96;100183.77;107684;1291;22005;-71
2023/02/20 00:28:13;;;;;;;3.50;2.20;;;;;;;9.39;69.25;100183.54;107635;1291;22004;-70
2023/02/20 00:30:40;;;;;;;3.60;1.80;;;;;;;9.33;68.79;100192.52;107696;1291;22885;-69
2023/02/20 00:33:06;;;;;;;5.60;2.50;;;;;;;9.31;68.47;100195.88;107646;1291;21989;-69
2023/02/20 00:35:32;;;;;;;5.20;2.30;;;;;;;9.22;68.79;100201.23;107791;1291;21993;-68
2023/02/20 00:38:00;;;;;;;6.30;2.70;;;;;;;9.15;68.72;100201.27;107870;1291;22005;-70
2023/02/20 00:40:26;;;;;;;4.60;2.50;;;;;;;9.17;68.36;100198.47;107916;1279;22000;-68
2023/02/20 00:42:52;;;;;;;5.50;2.30;;;;;;;9.15;68.55;100199.70;107805;1291;21991;-58
2023/02/20 00:45:19;;;;;;;4.10;2.60;;;;;;;9.16;68.44;100204.06;107860;1291;23074;-58
2023/02/20 00:47:45;;;;;;;5.50;2.90;;;;;;;9.16;68.74;100203.03;107767;1291;21993;-69
2023/02/20 00:50:12;;;;;;;4.90;2.80;;;;;;;9.11;68.81;100195.36;107612;1291;21991;-69
2023/02/20 00:52:40;;;;;;;5.20;2.70;;;;;;;9.18;68.28;100184.98;106973;1291;1002482;-58
2023/02/20 00:55:07;;;;;;;4.10;2.40;;;;;;;9.22;67.85;100184.23;107686;1291;21992;-68
2023/02/20 00:57:33;;;;;;;5.60;2.40;;;;;;;9.17;67.79;100187.43;107781;1291;22003;-58
2023/02/20 00:59:59;;;;;;;4.60;2.30;;;;;;;9.13;67.28;100190.79;107816;1291;22463;-68
2023/02/20 01:02:41;;;;;;;5.80;2.70;;;;;;;9.05;67.31;100191.56;107878;1291;21955;-68
2023/02/20 01:05:07;;;;;;;5.60;2.50;;;;;;;9.00;67.02;100191.45;107961;1291;21992;-69
2023/02/20 01:07:33;;;;;;;5.90;2.70;;;;;;;8.92;67.10;100198.33;107648;1278;21989;-58
2023/02/20 01:09:59;;;;;;;4.70;2.80;;;;;;;8.80;67.20;100207.70;107711;1291;23528;-60
2023/02/20 01:12:24;;;;;;;5.00;2.50;;;;;;;8.78;67.30;100214.02;107680;1291;22001;-69
2023/02/20 01:14:50;;;;;;;4.60;2.50;;;;;;;8.72;67.41;100215.63;107734;1291;21995;-68
2023/02/20 01:17:16;;;;;;;4.70;2.50;;;;;;;8.62;67.93;100220.94;107997;1291;22004;-58
2023/02/20 01:19:43;;;;;;;4.40;2.30;;;;;;;8.69;67.57;100229.48;107600;1278;22003;-58
2023/02/20 01:22:09;;;;;;;5.30;2.50;;;;;;;8.64;68.12;100233.00;107613;1291;21993;-69
2023/02/20 01:24:35;;;;;;;7.50;4.00;;;;;;;8.60;68.63;100230.58;107656;1291;21984;-58
2023/02/20 01:27:00;;;;;;;4.60;2.50;;;;;;;8.66;68.40;100230.36;107627;1291;21998;-58
2023/02/20 01:29:26;;;;;;;5.00;2.20;;;;;;;8.69;68.17;100231.56;107650;1291;21986;-68
2023/02/20 01:31:52;;;;;;;5.10;2.40;;;;;;;8.67;68.79;100233.52;107890;1285;21991;-65
2023/02/20 01:34:19;;;;;;;3.80;2.20;;;;;;;8.63;69.35;100234.59;107929;1291;21996;-69
2023/02/20 01:36:49;;;;;;;6.00;2.40;;;;;;;8.64;69.57;100234.58;107782;1291;21998;-69
2023/02/20 01:39:19;;;;;;;4.60;2.10;;;;;;;8.62;70.07;100231.27;107961;1291;22035;-59
2023/02/20 01:41:46;;;;;;;4.40;2.60;;;;;;;8.66;69.28;100232.81;107889;1291;21996;-70
2023/02/20 01:44:41;;;;;;;4.30;2.40;;;;;;;8.59;69.55;100238.98;107728;1291;21995;-68
2023/02/20 01:47:09;;;;;;;3.90;2.20;;;;;;;8.51;69.55;100246.20;107811;1291;22027;-69
2023/02/20 01:49:37;;;;;;;5.20;2.60;;;;;;;8.47;69.17;100251.62;107822;1291;22158;-70
2023/02/20 01:52:16;;;;;;;4.30;2.60;;;;;;;8.43;69.06;100253.38;107832;1291;22004;-59
2023/02/20 01:54:43;;;;;;;4.60;2.90;;;;;;;8.39;68.84;100249.90;107979;1291;22004;-70
2023/02/20 01:57:11;;;;;;;4.40;2.60;;;;;;;8.27;69.33;100253.81;107753;1291;22001;-59
2023/02/20 01:59:37;;;;;;;4.90;2.40;;;;;;;8.24;69.08;100258.20;107862;1291;21999;-68
2023/02/20 02:02:03;;;;;;;6.10;3.10;;;;;;;8.18;68.94;100258.05;107739;1291;21999;-59
2023/02/20 02:04:29;;;;;;;4.10;2.20;;;;;;;8.19;68.45;100261.19;107763;1291;21998;-69
2023/02/20 02:06:55;;;;;;;6.90;3.30;;;;;;;8.12;68.18;100267.34;107646;1289;22470;-59
2023/02/20 02:09:41;;;;;;;6.70;2.90;;;;;;;8.02;68.62;100275.58;107681;1291;22016;-60
2023/02/20 02:12:07;;;;;;;4.80;2.70;;;;;;;8.07;67.86;100281.70;107745;1291;21999;-60
2023/02/20 02:14:34;;;;;;;5.40;3.00;;;;;;;8.02;67.86;100290.27;106882;1291;1004228;-59
2023/02/20 02:17:05;;;;;;;4.40;2.50;;;;;;;7.98;67.94;100297.10;107633;1291;21991;-59
2023/02/20 02:19:57;;;;;;;6.00;3.00;;;;;;;7.92;67.84;100311.79;107757;1291;22068;-69
2023/02/20 02:22:48;;;;;;;4.50;2.80;;;;;;;7.93;67.53;100320.17;107599;1279;22276;-69
2023/02/20 02:25:41;;;;;;;7.00;2.80;;;;;;;7.89;67.43;100319.66;107794;1291;21993;-69
2023/02/20 02:28:37;;;;;;;6.50;3.60;;;;;;;7.85;67.31;100325.44;108005;1291;21993;-65
2023/02/20 02:31:34;;;;;;;6.20;2.80;;;;;;;7.77;67.39;100326.49;107996;1286;22465;-69
2023/02/20 02:34:09;;;;;;;5.40;2.80;;;;;;;7.72;67.32;100330.34;107823;1288;21995;-69
2023/02/20 02:36:41;;;;;;;7.40;3.10;;;;;;;7.61;67.70;100338.73;108008;1291;21998;-60
2023/02/20 02:39:32;;;;;;;7.00;2.80;;;;;;;7.50;68.41;100342.95;107954;1289;21993;-60
2023/02/20 02:42:01;;;;;;;;;;;;;;;7.55;68.16;100344.33;107961;1291;21982;-60
2023/02/20 02:44:43;;;;;;;5.00;2.40;;;;;;;7.55;67.94;100345.02;108032;1285;21995;-60
2023/02/20 02:47:19;;;;;;;6.60;2.70;;;;;;;7.50;68.12;100350.97;107966;1291;21995;-69
2023/02/20 02:50:05;;;;;;;5.20;3.00;;;;;;;7.53;67.91;100358.13;108046;1291;21998;-59
2023/02/20 02:55:29;;;;;;;7.10;3.70;;;;;;;7.44;67.77;100365.81;107909;1291;22001;-69
2023/02/20 02:57:55;;;;;;;4.20;2.70;;;;;;;7.42;67.47;100368.60;107961;1290;22004;-59
2023/02/20 03:00:23;;;;;;;6.50;3.40;;;;;;;7.41;67.69;100375.58;107966;1291;21992;-69
2023/02/20 03:02:57;;;;;;;5.90;3.00;;;;;;;7.36;67.79;100379.41;107973;1291;22000;-69
2023/02/20 03:05:25;;;;;;;5.60;2.50;;;;;;;7.36;67.72;100385.01;108039;1291;22006;-60
2023/02/20 03:07:53;;;;;;;5.20;2.60;;;;;;;7.30;67.78;100382.73;107922;1291;21993;-59
2023/02/20 03:10:30;;;;;;;6.40;3.20;;;;;;;7.29;67.54;100383.25;107682;1283;21990;-60
2023/02/20 03:12:58;;;;;;;6.50;3.30;;;;;;;7.21;68.35;100383.41;107737;1291;22010;-69
2023/02/20 03:15:32;;;;;;;5.20;2.80;;;;;;;7.12;68.87;100387.94;108013;1291;22017;-60
2023/02/20 03:18:16;;;;;;;4.90;2.90;;;;;;;7.19;68.05;100393.88;108112;1291;22037;-68
2023/02/20 03:20:48;;;;;;;4.40;2.90;;;;;;;7.22;67.52;100398.43;107922;1291;22005;-60
2023/02/20 03:23:21;;;;;;;5.60;3.40;;;;;;;7.23;67.66;100399.30;107944;1291;21999;-60
2023/02/20 03:25:52;;;;;;;7.60;2.70;;;;;;;7.23;67.21;100404.36;107784;1291;22016;-60
2023/02/20 03:28:30;;;;;;;7.30;3.40;;;;;;;7.22;66.78;100407.15;107656;1288;22038;-68
2023/02/20 03:31:15;;;;;;;4.50;2.80;;;;;;;7.21;66.26;100409.23;107754;1291;21993;-60
2023/02/20 03:45:15;;;;;;;7.80;3.10;;;;;;;7.08;66.73;100423.52;107603;1291;21988;-60
2023/02/20 03:47:46;;;;;;;7.40;3.30;;;;;;;7.04;67.17;100427.71;107756;1291;22001;-67
2023/02/20 03:50:12;;;;;;;5.40;3.60;;;;;;;6.99;67.46;100431.53;107651;1288;21992;-60
2023/02/20 03:52:38;;;;;;;7.30;3.70;;;;;;;7.02;67.28;100432.23;107705;1287;22005;-67
2023/02/20 03:55:08;;;;;;;9.00;3.20;;;;;;;7.05;66.95;100433.81;107783;1291;22049;-68
2023/02/20 03:57:38;;;;;;;6.80;3.40;;;;;;;7.06;66.65;100436.07;107744;1291;22009;-68
2023/02/20 04:00:05;;;;;;;6.20;3.10;;;;;;;7.10;66.12;100437.14;107727;1291;21973;-60
2023/02/20 04:02:37;;;;;;;7.50;3.20;;;;;;;7.09;66.10;100434.86;107680;1291;21979;-68
2023/02/20 04:05:06;;;;;;;5.70;3.30;;;;;;;7.05;66.05;100433.98;107698;1289;21993;-61
2023/02/20 04:07:35;;;;;;;7.00;3.30;;;;;;;7.04;65.77;100433.81;107652;1280;21998;-68
2023/02/20 04:10:02;;;;;;;8.50;3.50;;;;;;;6.99;66.21;100444.26;107097;1291;1003093;-68
2023/02/20 04:12:30;;;;;;;7.00;3.20;;;;;;;6.98;66.08;100454.20;107664;1291;22026;-68
2023/02/20 04:14:56;;;;;;;8.40;3.60;;;;;;;6.94;66.34;100458.90;107948;1291;22466;-61
2023/02/20 04:17:35;;;;;;;5.90;3.00;;;;;;;6.89;66.80;100459.39;108018;1292;21999;-68
2023/02/20 04:20:02;;;;;;;6.00;3.30;;;;;;;6.83;66.95;100462.68;107988;1291;22213;-68
2023/02/20 04:22:29;;;;;;;7.50;3.50;;;;;;;6.75;67.12;100467.36;107892;1291;22003;-60
2023/02/20 04:25:00;;;;;;;7.10;3.70;;;;;;;6.66;67.56;100473.42;107060;1290;1002333;-60
2023/02/20 04:27:26;;;;;;;5.90;3.20;;;;;;;6.50;68.72;100477.87;107688;1291;22038;-60
2023/02/20 04:29:52;;;;;;;6.40;3.50;;;;;;;6.50;68.72;100482.91;107854;1291;21996;-68
2023/02/20 04:32:18;;;;;;;6.90;3.20;;;;;;;6.40;70.04;100487.91;107830;1291;21993;-60
2023/02/20 04:34:44;;;;;;;6.40;3.80;;;;;;;6.47;69.12;100489.52;107750;1291;21998;-60
2023/02/20 04:37:15;;;;;;;7.00;3.90;;;;;;;6.55;68.30;100485.91;107682;1280;22033;-60
2023/02/20 04:39:40;;;;;;;7.90;4.50;;;;;;;6.59;68.08;100483.85;107877;1291;22010;-60
2023/02/20 04:42:06;;;;;;;9.00;3.50;;;;;;;6.53;68.33;100490.44;108037;1291;21987;-60
2023/02/20 04:44:33;;;;;;;7.10;4.10;;;;;;;6.40;69.38;100493.67;108017;1291;21992;-68
2023/02/20 04:47:03;;;;;;;7.00;3.80;;;;;;;6.41;68.85;100489.50;107896;1285;21991;-67
2023/02/20 04:49:28;;;;;;;7.30;4.00;;;;;;;6.41;68.85;100497.67;107652;1291;21995;-59
2023/02/20 04:51:56;;;;;;;7.80;3.90;;;;;;;6.36;69.10;100503.56;107623;1291;22003;-60
2023/02/20 04:54:21;;;;;;;8.50;3.90;;;;;;;6.40;68.79;100506.73;107599;1291;22022;-59
2023/02/20 04:56:47;;;;;;;7.40;3.30;;;;;;;6.39;68.92;100508.48;106876;1291;1002972;-67
2023/02/20 04:59:13;;;;;;;8.60;3.80;;;;;;;6.34;69.11;100504.27;107420;1289;299609;-60
2023/02/20 05:01:42;;;;;;;7.70;3.20;;;;;;;6.34;69.22;100503.20;107759;1286;22459;-60
2023/02/20 05:04:08;;;;;;;7.40;4.20;;;;;;;6.37;68.45;100505.67;107694;1278;22006;-61
2023/02/20 05:06:40;;;;;;;7.80;3.60;;;;;;;6.30;69.10;100506.32;107605;1291;22002;-66
2023/02/20 05:09:08;;;;;;;9.10;4.60;;;;;;;6.30;68.95;100510.50;107671;1291;22002;-68
2023/02/20 05:11:33;;;;;;;7.80;3.50;;;;;;;6.30;69.07;100511.89;107670;1291;21996;-67
2023/02/20 05:13:59;;;;;;;8.70;3.80;;;;;;;6.29;69.31;100513.97;107662;1280;22002;-67
2023/02/20 05:16:25;;;;;;;7.60;4.10;;;;;;;6.28;69.15;100518.33;107676;1291;22005;-66
2023/02/20 05:18:51;;;;;;;8.40;4.50;;;;;;;6.22;69.70;100518.80;107616;1291;21995;-67
2023/02/20 05:24:03;;;;;;;6.80;3.80;;;;;;;6.20;69.92;100521.05;107621;1291;21993;-60
2023/02/20 05:26:29;;;;;;;8.60;4.10;;;;;;;6.22;69.62;100524.90;107663;1291;21989;-60
2023/02/20 05:28:56;;;;;;;8.80;3.90;;;;;;;6.24;69.42;100531.53;107158;1277;1002451;-68
2023/02/20 05:31:22;;;;;;;8.70;3.90;;;;;;;6.30;68.83;100537.52;107628;1291;22007;-69
2023/02/20 05:33:48;;;;;;;7.80;4.10;;;;;;;6.32;68.99;100540.15;107602;1290;22028;-67
2023/02/20 05:36:15;;;;;;;7.90;3.90;;;;;;;6.32;68.97;100545.90;107611;1290;22463;-61
2023/02/20 05:38:48;;;;;;;10.00;4.70;;;;;;;6.27;69.26;100550.56;107668;1291;24340;-60
2023/02/20 05:41:15;;;;;;;8.40;3.70;;;;;;;6.25;69.49;100556.48;107668;1287;22006;-59
2023/02/20 05:43:40;;;;;;;7.30;3.60;;;;;;;6.27;69.17;100556.66;107827;1292;23752;-69
2023/02/20 05:46:06;;;;;;;8.00;4.00;;;;;;;6.29;68.95;100553.89;107650;1291;21990;-68
2023/02/20 05:48:32;;;;;;;6.40;3.40;;;;;;;6.32;68.95;100550.95;107656;1291;22008;-69
2023/02/20 05:50:57;;;;;;;6.20;3.50;;;;;;;6.38;68.54;100559.71;107650;1291;21990;-68
2023/02/20 05:53:27;;;;;;;6.50;3.40;;;;;;;6.42;68.81;100560.79;106876;1291;1002972;-60
2023/02/20 05:55:54;;;;;;;;;;;;;;;6.44;69.57;100555.91;107670;1291;23047;-60
2023/02/20 05:58:19;;;;;;;7.90;4.10;;;;;;;6.40;70.77;100558.15;107611;1284;22001;-70
2023/02/20 06:00:45;;;;;;;7.50;4.00;;;;;;;6.36;71.72;100560.56;107640;1284;22009;-70
2023/02/20 06:03:13;;;;;;;6.20;3.80;;;;;;;6.56;70.23;100561.75;107632;1291;21992;-69
2023/02/20 06:05:38;;;;;;;9.90;3.60;;;;;;;6.64;69.91;100565.31;107919;1290;21993;-69
2023/02/20 06:08:05;;;;;;;6.40;3.70;;;;;;;6.68;70.22;100566.55;108024;1290;22014;-70
2023/02/20 06:10:30;;;;;;;5.70;2.90;;;;;;;6.72;70.28;100566.58;107994;1291;21998;-59
2023/02/20 06:12:56;;;;;;;7.30;3.80;;;;;;;6.69;70.72;100571.10;107819;1290;22028;-59
2023/02/20 06:15:22;;;;;;;8.10;4.20;;;;;;;6.75;70.90;100568.86;107924;1291;21991;-60
2023/02/20 06:17:54;;;;;;;7.90;4.20;;;;;;;6.88;70.05;100568.94;107915;1285;21997;-60
2023/02/20 06:20:20;;;;;;;8.00;4.00;;;;;;;7.03;69.18;100571.81;107719;1290;22306;-62
2023/02/20 06:22:49;;;;;;;8.00;4.00;;;;;;;7.15;68.67;100566.11;107713;1291;21998;-71
2023/02/20 06:25:15;;;;;;;9.50;4.60;;;;;;;7.20;69.10;100558.81;107707;1291;22033;-70
2023/02/20 06:27:41;;;;;;;7.50;4.10;;;;;;;7.20;69.38;100564.92;107857;1290;22040;-71
2023/02/20 06:30:08;;;;;;;8.50;3.70;;;;;;;7.31;68.83;100566.19;107805;1290;22004;-70
2023/02/20 06:32:34;;;;;;;6.70;4.00;;;;;;;7.34;69.14;100564.80;107756;1291;21993;-70
2023/02/20 06:35:00;;;;;;;7.50;3.80;;;;;;;7.32;69.20;100563.73;107700;1290;24468;-71
2023/02/20 06:37:27;;;;;;;7.90;3.70;;;;;;;7.29;69.04;100566.01;107772;1291;22008;-71
2023/02/20 06:39:56;;;;;;;9.20;4.60;;;;;;;7.42;68.96;100565.02;107840;1291;23736;-70
2023/02/20 06:42:22;;;;;;;8.20;4.30;;;;;;;7.57;69.98;100564.89;107601;1286;22084;-71
2023/02/20 06:44:48;;;;;;;7.40;4.10;;;;;;;7.61;69.09;100568.39;107688;1291;22497;-62
2023/02/20 06:47:14;;;;;;;11.80;4.00;;;;;;;7.49;68.73;100570.45;108451;1291;21960;-62
2023/02/20 06:49:40;;;;;;;6.50;3.80;;;;;;;7.50;68.44;100576.04;107624;1291;21967;-62
2023/02/20 06:52:09;;;;;;;7.40;4.40;;;;;;;7.58;67.78;100577.63;107652;1291;21992;-70
2023/02/20 06:54:35;;;;;;;7.00;3.80;;;;;;;7.44;67.72;100582.99;107687;1291;22033;-62
2023/02/20 06:57:01;;;;;;;7.70;4.10;;;;;;;7.44;67.73;100588.23;106882;1291;1003391;-69
2023/02/20 06:59:28;;;;;;;6.70;3.90;;;;;;;7.58;67.65;100595.09;107642;1291;21999;-62
2023/02/20 07:01:54;;;;;;;10.30;4.30;;;;;;;7.64;67.48;100596.34;106895;1291;1003535;-65
2023/02/20 07:04:22;;;;;;;8.20;3.90;;;;;;;7.69;67.07;100596.36;107634;1291;21994;-69
2023/02/20 07:06:48;;;;;;;7.60;3.70;;;;;;;7.89;67.16;100601.48;107626;1291;22031;-70
2023/02/20 07:09:15;;;;;;;6.50;3.50;;;;;;;7.92;66.95;100602.00;107632;1290;21999;-64
2023/02/20 07:11:40;;;;;;;7.50;3.90;;;;;;;7.95;67.04;100604.10;107642;1291;23653;-69
2023/02/20 07:14:13;;;;;;;10.50;3.80;;;;;;;8.05;67.47;100600.98;107719;1285;21993;-69
2023/02/20 07:16:39;;;;;;;6.20;3.70;;;;;;;8.31;67.05;100605.38;107933;1278;22001;-69
2023/02/20 07:19:05;;;;;;;9.60;4.30;;;;;;;8.47;66.73;100599.45;107721;1279;21999;-69
2023/02/20 07:21:35;;;;;;;9.70;4.60;;;;;;;8.52;66.18;100595.80;107696;1290;23784;-69
2023/02/20 07:24:00;;;;;;;6.60;4.00;;;;;;;8.45;65.47;100595.42;107593;1280;21993;-63
2023/02/20 07:26:28;;;;;;;8.10;4.40;;;;;;;8.48;64.99;100592.80;107686;1279;21998;-62
2023/02/20 07:28:54;;;;;;;6.40;3.40;;;;;;;8.59;65.01;100599.29;107979;1290;22038;-63
2023/02/20 07:31:20;;;;;;;9.40;4.40;;;;;;;8.66;65.61;100601.02;107689;1291;21996;-62
2023/02/20 07:33:46;;;;;;;8.20;4.30;;;;;;;8.81;66.04;100598.93;107735;1290;21998;-70
2023/02/20 07:36:13;;;;;;;8.30;3.90;;;;;;;8.92;65.51;100602.23;107761;1280;21995;-69
2023/02/20 07:38:39;;;;;;;6.90;3.70;;;;;;;8.85;64.61;100600.67;107662;1291;23127;-69
2023/02/20 07:41:06;;;;;;;9.20;4.90;;;;;;;9.01;64.21;100594.86;107623;1290;21993;-63
2023/02/20 07:43:33;;;;;;;9.10;4.40;;;;;;;9.04;64.04;100592.39;107674;1291;22006;-70
2023/02/20 07:45:59;;;;;;;6.90;4.40;;;;;;;9.02;63.66;100596.43;107641;1291;22004;-69
2023/02/20 07:48:25;;;;;;;9.60;3.90;;;;;;;9.04;63.16;100604.13;107655;1291;22269;-70
2023/02/20 07:50:51;;;;;;;9.70;4.90;;;;;;;9.14;63.59;100605.85;107774;1291;22005;-70
2023/02/20 07:53:18;;;;;;;9.10;4.40;;;;;;;9.01;62.74;100608.51;107667;1290;21996;-69
2023/02/20 07:55:44;;;;;;;7.40;4.40;;;;;;;9.13;62.56;100607.96;107748;1291;21998;-62
2023/02/20 07:58:11;;;;;;;9.60;4.50;;;;;;;9.31;62.82;100607.02;107726;1291;21997;-63
2023/02/20 08:00:37;;;;;;;7.30;4.60;;;;;;;9.44;63.87;100604.88;107789;1291;22001;-63
2023/02/20 08:03:03;;;;;;;9.50;4.80;;;;;;;9.50;62.36;100605.38;107814;1291;22004;-70
2023/02/20 08:05:29;;;;;;;7.60;4.50;;;;;;;9.35;62.10;100609.82;107618;1291;21993;-62
2023/02/20 08:07:55;;;;;;;10.30;4.60;;;;;;;9.33;61.29;100616.30;107649;1290;21993;-66
2023/02/20 08:10:23;;;;;;;10.50;4.60;;;;;;;9.40;60.43;100618.39;107647;1291;21997;-68
2023/02/20 08:12:50;;;;;;;9.00;4.40;;;;;;;9.58;60.95;100615.67;107779;1291;21991;-62
2023/02/20 08:15:21;;;;;;;11.10;4.90;;;;;;;9.75;60.34;100614.89;107616;1291;22752;-67
2023/02/20 08:17:47;;;;;;;7.70;4.20;;;;;;;9.71;58.89;100615.80;107836;1278;21987;-68
2023/02/20 08:20:14;;;;;;;9.30;4.50;;;;;;;9.67;58.96;100611.44;107815;1291;21992;-68
2023/02/20 08:22:43;;;;;;;7.70;4.30;;;;;;;9.78;59.07;100607.17;107082;1290;1002541;-62
2023/02/20 08:25:08;;;;;;;8.10;4.50;;;;;;;9.92;59.09;100602.36;107705;1291;21995;-69
2023/02/20 08:27:37;;;;;;;7.60;4.10;;;;;;;9.95;57.35;100608.13;107774;1290;22034;-68
2023/02/20 08:30:06;;;;;;;7.90;3.70;;;;;;;9.83;55.81;100613.28;108022;1291;22034;-67
2023/02/20 08:32:33;;;;;;;7.90;3.70;;;;;;;9.92;56.20;100613.23;107684;1288;22112;-68
2023/02/20 08:34:59;;;;;;;6.40;3.80;;;;;;;10.14;57.24;100609.77;107715;1291;21997;-62
2023/02/20 08:37:25;;;;;;;6.80;3.40;;;;;;;10.05;55.90;100608.06;107641;1291;21994;-61
2023/02/20 08:39:51;;;;;;;6.50;3.30;;;;;;;10.07;56.10;100606.81;107667;1285;22031;-62
2023/02/20 08:42:17;;;;;;;8.10;4.20;;;;;;;10.12;55.51;100603.45;107634;1291;22002;-62
2023/02/20 08:44:43;;;;;;;6.10;3.60;;;;;;;10.41;56.85;100599.23;107672;1291;22089;-62
2023/02/20 08:47:08;;;;;;;7.10;3.80;;;;;;;10.51;55.08;100596.89;107645;1291;22001;-61
2023/02/20 08:49:34;;;;;;;6.50;3.30;;;;;;;10.54;52.61;100591.95;107599;1291;21993;-61
2023/02/20 08:52:02;;;;;;;6.90;3.20;;;;;;;10.58;51.76;100594.02;107602;1291;21991;-62
2023/02/20 08:54:29;;;;;;;7.20;3.20;;;;;;;10.50;50.88;100595.49;107653;1291;21991;-68
2023/02/20 08:56:55;;;;;;;6.40;3.30;;;;;;;10.41;50.53;100592.40;107625;1290;22461;-68
2023/02/20 08:59:21;;;;;;;6.90;3.40;;;;;;;10.54;51.21;100595.80;107677;1291;21986;-68
2023/02/20 09:01:46;;;;;;;6.70;3.80;;;;;;;10.47;49.57;100600.59;107685;1291;22007;-62
2023/02/20 09:04:12;;;;;;;6.20;3.40;;;;;;;10.68;49.47;100600.59;107695;1291;22187;-69
2023/02/20 09:06:40;;;;;;;7.00;3.10;;;;;;;10.89;49.01;100605.48;107657;1291;21991;-62
2023/02/20 09:09:07;;;;;;;7.00;4.00;;;;;;;10.86;48.49;100613.95;107639;1291;22163;-68
2023/02/20 09:11:34;;;;;;;6.70;3.60;;;;;;;11.11;49.80;100617.90;107763;1291;22001;-68
2023/02/20 09:14:01;;;;;;;11.20;4.10;;;;;;;11.15;48.73;100610.84;107947;1291;22031;-62
2023/02/20 09:16:27;;;;;;;7.00;3.60;;;;;;;11.34;48.52;100603.42;107824;1278;22034;-62
2023/02/20 09:18:54;;;;;;;7.80;3.20;;;;;;;11.51;47.30;100605.14;107651;1291;23066;-62
2023/02/20 09:21:20;;;;;;;7.00;3.90;;;;;;;11.72;47.61;100604.17;107646;1291;22006;-67
2023/02/20 09:23:46;;;;;;;5.90;3.40;;;;;;;11.68;47.14;100605.80;107626;1289;22009;-66
2023/02/20 09:26:12;;;;;;;8.50;3.60;;;;;;;11.67;46.28;100604.42;107681;1291;21989;-63
2023/02/20 09:28:39;;;;;;;6.80;3.50;;;;;;;11.83;47.07;100607.72;107688;1291;23486;-62
2023/02/20 09:31:05;;;;;;;7.40;3.20;;;;;;;11.86;47.70;100604.33;107740;1289;22039;-66
2023/02/20 09:33:36;;;;;;;9.00;3.80;;;;;;;11.65;46.14;100605.85;107715;1291;21990;-66
2023/02/20 09:36:02;;;;;;;9.10;3.70;;;;;;;11.45;45.97;100606.79;107676;1290;21996;-61
2023/02/20 09:38:29;;;;;;;6.20;3.30;;;;;;;11.19;45.83;100603.23;107762;1291;21992;-62
2023/02/20 09:40:57;;;;;;;7.30;3.60;;;;;;;11.22;46.36;100604.96;107673;1289;21997;-65
2023/02/20 09:43:54;;;;;;;9.70;4.00;;;;;;;11.35;47.37;100605.35;107602;1291;22757;-63
2023/02/20 09:46:21;;;;;;;6.70;3.30;;;;;;;11.22;46.78;100614.27;107674;1291;21994;-63
2023/02/20 09:48:49;;;;;;;7.70;4.00;;;;;;;11.32;46.83;100613.80;107758;1290;21985;-66
2023/02/20 09:51:17;;;;;;;12.30;4.10;;;;;;;11.60;47.87;100606.97;107630;1291;22005;-65
2023/02/20 09:53:46;;;;;;;7.50;3.70;;;;;;;11.42;45.13;100617.73;107724;1291;23701;-67
2023/02/20 09:56:17;;;;;;;8.00;3.40;;;;;;;11.38;44.49;100615.50;107640;1291;23663;-63
2023/02/20 09:58:44;;;;;;;8.20;3.50;;;;;;;11.44;44.66;100612.80;107735;1291;23669;-67
2023/02/20 10:01:12;;;;;;;7.00;3.30;;;;;;;11.12;44.12;100612.80;107668;1289;22245;-67
2023/02/20 10:03:53;;;;;;;10.00;4.50;;;;;;;11.16;44.70;100612.94;106955;1290;1002502;-63
2023/02/20 10:06:21;;;;;;;6.20;3.60;;;;;;;11.34;44.99;100620.28;107649;1289;22459;-63
2023/02/20 10:08:50;;;;;;;5.70;3.00;;;;;;;11.42;44.90;100614.73;107671;1289;22001;-63
2023/02/20 10:11:32;;;;;;;6.80;3.60;;;;;;;11.43;43.87;100603.84;107730;1291;21991;-63
2023/02/20 10:14:16;;;;;;;7.80;3.70;;;;;;;11.60;44.85;100601.86;107963;1288;23653;-67
2023/02/20 10:17:19;;;;;;;6.70;3.30;;;;;;;11.79;44.33;100597.58;107746;1291;22037;-68
2023/02/20 10:20:03;;;;;;;8.00;3.30;;;;;;;11.93;43.38;100585.41;107762;1289;21997;-63
2023/02/20 10:22:53;;;;;;;7.70;3.60;;;;;;;11.75;42.39;100579.35;107703;1289;21994;-62
2023/02/20 10:25:26;;;;;;;6.50;3.30;;;;;;;11.68;43.01;100578.91;107646;1291;21998;-68
2023/02/20 10:28:04;;;;;;;8.10;3.30;;;;;;;11.72;43.53;100575.52;107699;1291;22860;-66
2023/02/20 10:30:54;;;;;;;7.00;2.80;;;;;;;11.68;41.39;100582.80;107725;1291;24047;-67
2023/02/20 10:33:36;;;;;;;8.10;4.30;;;;;;;11.26;41.25;100589.63;107654;1286;22521;-63
2023/02/20 10:36:31;;;;;;;20.70;11.20;;;;;;;11.07;41.70;100599.15;107656;1284;22072;-67
2023/02/20 10:39:14;;;;;;;10.30;5.90;;;;;;;11.15;42.29;100587.81;107582;1289;21995;-68
2023/02/20 10:41:45;;;;;;;8.90;4.50;;;;;;;11.33;42.96;100591.14;107681;1289;22061;-63
2023/02/20 10:44:36;;;;;;;7.40;3.10;;;;;;;11.27;42.28;100581.89;107767;1291;21994;-66
2023/02/20 10:47:11;;;;;;;7.60;3.70;;;;;;;11.62;43.06;100570.20;107644;1291;22008;-66
2023/02/20 10:49:39;;;;;;;7.20;3.50;;;;;;;12.07;43.58;100571.87;107760;1291;21999;-65
2023/02/20 10:52:07;;;;;;;7.20;3.20;;;;;;;12.12;42.72;100568.79;107723;1291;22467;-65
2023/02/20 10:54:37;;;;;;;8.20;4.10;;;;;;;12.14;42.09;100570.89;107738;1291;21998;-61
2023/02/20 10:57:18;;;;;;;7.00;3.20;;;;;;;12.19;42.24;100565.19;107704;1291;24958;-62
2023/02/20 10:59:59;;;;;;;5.80;3.00;;;;;;;11.90;41.46;100574.39;107693;1291;22005;-61
2023/02/20 11:02:26;;;;;;;7.20;3.10;;;;;;;11.98;42.15;100563.92;107720;1291;22000;-65
2023/02/20 11:04:55;;;;;;;5.70;2.80;;;;;;;11.92;41.03;100565.39;107678;1291;22057;-61
2023/02/20 11:07:23;;;;;;;6.10;3.20;;;;;;;11.93;41.02;100565.39;107751;1290;22001;-65
2023/02/20 11:09:49;;;;;;;6.70;2.40;;;;;;;11.81;41.25;100569.43;107704;1291;22010;-61
2023/02/20 11:12:32;;;;;;;8.50;2.60;;;;;;;11.87;41.07;100576.02;107672;1291;21996;-61
2023/02/20 11:14:59;;;;;;;3.90;2.20;;;;;;;11.56;40.05;100575.91;107693;1284;22034;-66
2023/02/20 11:17:26;;;;;;;5.30;1.80;;;;;;;11.63;39.93;100577.40;107740;1291;22192;-64
2023/02/20 11:20:03;;;;;;;7.80;1.90;;;;;;;11.80;39.59;100573.98;107705;1291;22038;-61
2023/02/20 11:22:48;;;;;;;6.60;2.70;;;;;;;12.13;40.44;100574.77;107698;1291;22053;-66
2023/02/20 11:25:33;;;;;;;5.00;2.50;;;;;;;12.37;40.16;100579.14;107730;1291;24316;-64
2023/02/20 11:28:23;;;;;;;5.10;1.90;;;;;;;12.59;39.53;100577.90;107662;1291;22007;-61
2023/02/20 11:30:57;;;;;;;6.20;2.20;;;;;;;12.78;39.29;100581.95;107637;1290;21999;-62
2023/02/20 11:33:24;;;;;;;3.90;1.80;;;;;;;12.89;39.36;100580.87;107720;1291;23654;-66
2023/02/20 11:35:55;;;;;;;4.30;1.90;;;;;;;13.03;40.03;100575.17;107663;1291;22008;-66
2023/02/20 11:38:21;;;;;;;3.60;1.70;;;;;;;13.14;38.51;100573.19;107704;1285;22001;-63
2023/02/20 11:41:00;;;;;;;4.90;2.20;;;;;;;13.06;37.59;100578.46;107788;1291;21999;-64
2023/02/20 11:43:30;;;;;;;4.20;1.90;;;;;;;12.70;37.96;100572.95;107701;1286;21996;-63
2023/02/20 11:46:17;;;;;;;9.20;1.90;;;;;;;12.34;38.01;100566.00;107728;1290;22000;-63
2023/02/20 11:49:01;;;;;;;6.70;2.10;;;;;;;12.48;39.38;100564.71;107808;1291;21996;-63
2023/02/20 11:51:37;;;;;;;4.20;1.70;;;;;;;12.35;38.82;100563.70;107775;1291;22008;-63